createdAt,value
2022-10-23T00:02:28.425Z,35.40
2022-10-23T00:07:50.732Z,39.27
2022-10-23T00:13:13.117Z,28.77
2022-10-23T00:18:35.271Z,33.73
2022-10-23T00:23:57.904Z,34.13
2022-10-23T00:29:21.300Z,30.52
2022-10-23T00:34:43.498Z,28.80
2022-10-23T00:40:05.671Z,31.10
2022-10-23T00:45:40.345Z,35.80
2022-10-23T00:51:03.681Z,41.90
2022-10-23T00:56:25.987Z,38.23
2022-10-23T01:01:49.327Z,42.53
2022-10-23T01:07:16.696Z,45.63
2022-10-23T01:12:55.220Z,47.75
2022-10-23T01:18:34.940Z,52.03
2022-10-23T01:24:33.362Z,47.83
2022-10-23T01:30:00.764Z,55.98
2022-10-23T01:35:31.126Z,58.95
2022-10-23T01:41:05.123Z,67.90
2022-10-23T01:46:30.376Z,53.70
2022-10-23T01:51:57.484Z,57.35
2022-10-23T01:57:24.463Z,53.60
2022-10-23T02:02:49.073Z,68.50
2022-10-23T02:08:13.376Z,78.33
2022-10-23T02:13:49.906Z,71.40
2022-10-23T02:19:39.967Z,59.27
2022-10-23T02:25:26.822Z,65.90
2022-10-23T02:30:52.096Z,48.43
2022-10-23T02:36:15.543Z,43.63
2022-10-23T02:41:57.829Z,48.40
2022-10-23T02:47:24.835Z,46.10
2022-10-23T02:53:00.946Z,41.37
2022-10-23T02:58:57.269Z,41.90
2022-10-23T03:04:22.966Z,41.43
2022-10-23T03:09:45.439Z,36.03
2022-10-23T03:15:07.691Z,40.30
2022-10-23T03:20:31.244Z,37.87
2022-10-23T03:25:53.776Z,31.73
2022-10-23T03:31:16.379Z,34.43
2022-10-23T03:36:39.018Z,30.37
2022-10-23T03:42:01.155Z,30.80
2022-10-23T03:47:23.318Z,29.03
2022-10-23T03:52:45.804Z,28.50
2022-10-23T03:58:08.354Z,27.73
2022-10-23T04:03:30.571Z,29.65
2022-10-23T04:08:52.768Z,37.07
2022-10-23T04:14:16.142Z,48.98
2022-10-23T04:19:38.380Z,31.07
2022-10-23T04:25:00.551Z,29.67
2022-10-23T04:30:23.979Z,31.62
2022-10-23T04:35:46.217Z,30.07
2022-10-23T04:41:08.391Z,26.73
2022-10-23T04:46:30.779Z,26.00
2022-10-23T04:51:53.346Z,30.90
2022-10-23T04:57:15.574Z,25.23
2022-10-23T05:02:37.802Z,24.87
2022-10-23T05:08:00.325Z,25.73
2022-10-23T05:13:24.138Z,22.50
2022-10-23T05:18:52.585Z,24.82
2022-10-23T05:24:14.924Z,21.62
2022-10-23T05:29:39.139Z,23.65
2022-10-23T05:35:01.826Z,25.08
2022-10-23T05:40:25.058Z,27.82
2022-10-23T05:45:47.284Z,27.25
2022-10-23T05:51:11.212Z,25.15
2022-10-23T05:56:35.538Z,25.20
2022-10-23T06:01:57.825Z,25.27
2022-10-23T06:07:20.655Z,26.52
2022-10-23T06:12:43.795Z,26.55
2022-10-23T06:18:09.602Z,32.75
2022-10-23T06:23:32.376Z,38.90
2022-10-23T06:28:54.938Z,38.65
2022-10-23T06:34:18.107Z,40.40
2022-10-23T06:39:41.035Z,46.60
2022-10-23T06:45:06.346Z,45.05
2022-10-23T06:50:27.354Z,48.95
2022-10-23T06:55:52.902Z,49.27
2022-10-23T07:01:16.879Z,50.08
2022-10-23T07:06:39.772Z,52.85
2022-10-23T07:12:01.917Z,52.00
2022-10-23T07:17:24.170Z,38.73
2022-10-23T07:22:46.873Z,32.23
2022-10-23T07:28:10.637Z,28.15
2022-10-23T07:33:32.910Z,29.57
2022-10-23T07:38:55.456Z,33.10
2022-10-23T07:44:19.080Z,30.25
2022-10-23T07:49:43.036Z,31.05
2022-10-23T07:55:05.959Z,35.00
2022-10-23T08:00:29.257Z,36.55
2022-10-23T08:05:51.493Z,33.88
2022-10-23T08:11:14.844Z,27.15
2022-10-23T08:16:38.183Z,29.72
2022-10-23T08:22:00.360Z,29.95
2022-10-23T08:27:22.692Z,40.92
2022-10-23T08:32:46.942Z,39.03
2022-10-23T08:38:09.654Z,38.58
2022-10-23T08:43:54.189Z,38.65
2022-10-23T08:55:36.312Z,37.80
2022-10-23T09:00:59.950Z,33.05
2022-10-23T09:06:38.737Z,35.23
2022-10-23T09:12:06.801Z,26.17
2022-10-23T09:17:42.671Z,29.67
2022-10-23T09:28:58.912Z,28.47
2022-10-23T09:34:24.356Z,25.67
2022-10-23T09:39:49.479Z,25.93
2022-10-23T09:45:15.009Z,27.33
2022-10-23T09:50:40.242Z,23.70
2022-10-23T09:56:08.691Z,26.77
2022-10-23T10:01:57.105Z,24.13
2022-10-23T10:07:36.654Z,21.47
2022-10-23T10:13:02.918Z,21.47
2022-10-23T10:18:44.752Z,21.53
2022-10-23T10:24:29.861Z,21.23
2022-10-23T10:30:10.739Z,22.27
2022-10-23T10:35:43.311Z,20.27
2022-10-23T10:41:19.445Z,24.43
2022-10-23T10:46:46.635Z,19.27
2022-10-23T10:52:16.847Z,21.30
2022-10-23T10:57:54.977Z,18.98
2022-10-23T11:03:50.192Z,19.03
2022-10-23T11:09:20.591Z,17.97
2022-10-23T11:14:55.590Z,21.43
2022-10-23T11:20:43.608Z,15.87
2022-10-23T11:26:47.086Z,12.70
2022-10-23T11:32:50.326Z,14.73
2022-10-23T11:38:32.190Z,11.18
2022-10-23T11:44:07.808Z,14.20
2022-10-23T11:49:40.649Z,12.07
2022-10-23T11:55:11.790Z,12.80
2022-10-23T12:00:41.306Z,13.43
2022-10-23T12:06:12.457Z,10.13
2022-10-23T12:12:18.102Z,11.70
2022-10-23T12:17:46.582Z,9.98
2022-10-23T12:23:16.776Z,11.73
2022-10-23T12:29:25.722Z,10.00
2022-10-23T12:35:01.632Z,14.43
2022-10-23T12:40:34.020Z,13.47
2022-10-23T12:45:58.079Z,11.40
2022-10-23T12:51:29.983Z,9.28
2022-10-23T12:56:55.744Z,15.37
2022-10-23T13:02:30.286Z,17.30
2022-10-23T13:07:58.833Z,18.23
2022-10-23T13:13:26.572Z,15.40
2022-10-23T13:18:54.496Z,15.13
2022-10-23T13:24:18.883Z,12.53
2022-10-23T13:29:44.501Z,10.50
2022-10-23T13:35:21.555Z,9.95
2022-10-23T13:40:38.358Z,11.83
2022-10-23T13:46:00.695Z,12.47
2022-10-23T13:51:42.609Z,9.25
2022-10-23T13:57:06.450Z,11.40
2022-10-23T14:02:34.834Z,8.50
2022-10-23T14:07:58.501Z,8.53
2022-10-23T14:13:21.104Z,14.65
2022-10-23T14:18:43.278Z,16.45
2022-10-23T14:24:06.918Z,15.45
2022-10-23T14:29:29.441Z,10.70
2022-10-23T14:34:55.527Z,11.68
2022-10-23T14:40:19.119Z,10.03
2022-10-23T14:45:41.351Z,10.58
2022-10-23T14:51:05.223Z,8.50
2022-10-23T14:56:27.866Z,11.78
2022-10-23T15:07:16.493Z,17.40
2022-10-23T15:12:39.451Z,18.12
2022-10-23T15:18:02.070Z,20.15
2022-10-23T15:23:24.769Z,13.83
2022-10-23T15:28:48.211Z,14.73
2022-10-23T15:34:11.314Z,15.45
2022-10-23T15:39:37.459Z,13.10
2022-10-23T15:45:00.716Z,15.48
2022-10-23T15:50:23.629Z,12.15
2022-10-23T15:55:45.821Z,17.35
2022-10-23T16:01:11.335Z,14.43
2022-10-23T16:06:35.666Z,15.10
2022-10-23T16:11:58.836Z,15.90
2022-10-23T16:17:21.584Z,16.37
2022-10-23T16:22:45.169Z,16.40
2022-10-23T16:28:07.920Z,18.05
2022-10-23T16:33:30.974Z,16.97
2022-10-23T16:38:53.842Z,21.65
2022-10-23T16:44:16.681Z,22.13
2022-10-23T16:49:39.274Z,21.73
2022-10-23T16:55:02.428Z,23.87
2022-10-23T17:00:27.443Z,18.97
2022-10-23T17:05:56.449Z,17.30
2022-10-23T17:11:31.271Z,19.65
2022-10-23T17:16:57.846Z,18.37
2022-10-23T17:22:20.087Z,17.48
2022-10-23T17:27:43.315Z,22.27
2022-10-23T17:33:05.991Z,20.50
2022-10-23T17:38:28.310Z,20.50
2022-10-23T17:43:51.256Z,18.02
2022-10-23T17:49:16.597Z,24.05
2022-10-23T17:54:39.456Z,63.45
2022-10-23T18:00:03.727Z,27.87
2022-10-23T18:05:27.248Z,25.77
2022-10-23T18:10:49.634Z,23.70
2022-10-23T18:16:16.737Z,24.72
2022-10-23T18:21:40.819Z,23.12
2022-10-23T18:27:03.516Z,25.05
2022-10-23T18:32:26.442Z,31.05
2022-10-23T18:37:49.932Z,25.27
2022-10-23T18:43:15.165Z,28.80
2022-10-23T18:48:37.237Z,27.55
2022-10-23T18:54:00.543Z,35.90
2022-10-23T18:59:26.236Z,29.75
2022-10-23T19:04:48.695Z,31.50
2022-10-23T19:10:12.997Z,26.68
2022-10-23T19:15:35.732Z,169.87
2022-10-23T19:21:01.596Z,42.70
2022-10-23T19:26:26.354Z,28.30
2022-10-23T19:31:50.346Z,31.50
2022-10-23T19:42:37.774Z,29.60
2022-10-23T19:48:00.691Z,34.50
2022-10-23T19:53:22.884Z,27.10
2022-10-23T19:58:46.023Z,29.07
2022-10-23T20:04:09.130Z,31.23
2022-10-23T20:09:31.438Z,27.77
2022-10-23T20:14:55.205Z,71.97
2022-10-23T20:20:18.036Z,33.43
2022-10-23T20:25:40.227Z,34.00
2022-10-23T20:31:03.450Z,30.47
2022-10-23T20:36:46.777Z,30.53
2022-10-23T20:42:09.491Z,32.93
2022-10-23T20:47:32.039Z,34.90
2022-10-23T20:52:54.197Z,34.70
2022-10-23T20:58:16.334Z,35.60
2022-10-23T21:03:38.501Z,34.13
2022-10-23T21:09:05.461Z,45.50
2022-10-23T21:14:29.244Z,35.87
2022-10-23T21:19:52.048Z,38.10
2022-10-23T21:25:14.542Z,37.77
2022-10-23T21:30:37.270Z,37.87
2022-10-23T21:36:11.852Z,36.67
2022-10-23T21:41:33.596Z,38.13
2022-10-23T21:46:55.872Z,42.23
2022-10-23T21:52:19.834Z,34.03
2022-10-23T21:57:43.920Z,37.67
2022-10-23T22:03:06.345Z,35.20
2022-10-23T22:08:28.888Z,40.17
2022-10-23T22:13:51.210Z,35.67
2022-10-23T22:19:13.369Z,35.93
2022-10-23T22:24:36.892Z,38.70
2022-10-23T22:29:59.059Z,36.73
2022-10-23T22:35:21.784Z,32.17
2022-10-23T22:40:46.620Z,35.03
2022-10-23T22:46:15.161Z,33.40
2022-10-23T22:51:40.119Z,30.43
2022-10-23T22:57:02.284Z,32.37
2022-10-23T23:02:24.434Z,33.37
2022-10-23T23:07:47.143Z,32.27
2022-10-23T23:13:10.478Z,30.37
2022-10-23T23:18:33.298Z,30.03
2022-10-23T23:23:55.634Z,31.20
2022-10-23T23:29:18.220Z,32.73
2022-10-23T23:34:41.361Z,30.60
2022-10-23T23:40:03.607Z,29.70
2022-10-23T23:45:25.916Z,29.17
2022-10-23T23:50:48.148Z,35.20
2022-10-23T23:56:10.380Z,31.47
